Startpagina
METAR-TAF:

METAR-TAF

Vliegvelden :

Aéroport de Luxembourg

Luxemburg, Luxemburg

breedte: 49-37N, lengte: 006-13E, hoogte: 376 m

Actueel weer

Dit bericht is 29 minuten geleden gemaakt, om 21:50 UTC
Wind 8 kt uit het noorden
Temperatuur 15°C
Vochtigheid 72%
Druk 1023 hPa
Zicht 10 km of meer
Weinig wolken op 3800 ft
Gebroken wolken op 3900 ft

METAR: ELLX 242150Z 36008KT 9999 FEW038 BKN039 15/10 Q1023 NOSIG

Tijdstip: 00:19 (22:19 UTC)

Verwachting

Dit bericht is 5 uur en het 19 minuten geleden gemaakt, om 17:00 UTC
Verwachting geldig van 24 om 18 UTC tot 25 om 24 UTC
Wind 10 kt uit het noordnoordwesten
Zicht 10 km of meer
geen wolken onder 1500 m en geen cumulonimbus

TAF: ELLX 241700Z 2418/2524 34010KT CAVOK

Waarnemingen en weersverwachtingen van meer dan 4000 vliegvelden (METAR en TAF).

De beschikbare stations zijn de gele en rode punten op de kaart.

Ga met uw muis naar het station om de naam te zien.

Klik dan om waarnemingen en weersverwachtingen te zien.

kaart wijzigen: klik op de groene knoppen met een zwart kruis om in te zoomen, op de groene knop met een streepje om uit te zoomen of op de groene pijlen voor aangrenzende kaarten.


METAR-TAF: